createdAt,value
2022-12-04T00:01:08.269Z,31.77
2022-12-04T00:03:35.218Z,35.03
2022-12-04T00:06:10.246Z,33.37
2022-12-04T00:08:37.122Z,32.70
2022-12-04T00:11:05.150Z,33.40
2022-12-04T00:13:32.576Z,32.97
2022-12-04T00:15:59.491Z,32.67
2022-12-04T00:18:26.681Z,33.70
2022-12-04T00:20:53.655Z,34.80
2022-12-04T00:23:20.410Z,35.53
2022-12-04T00:25:48.872Z,34.57
2022-12-04T00:28:16.856Z,32.27
2022-12-04T00:30:44.252Z,34.47
2022-12-04T00:33:14.210Z,34.97
2022-12-04T00:35:41.142Z,33.47
2022-12-04T00:38:07.932Z,34.23
2022-12-04T00:40:34.718Z,34.53
2022-12-04T00:43:01.589Z,34.50
2022-12-04T00:45:28.421Z,33.37
2022-12-04T00:47:55.303Z,33.00
2022-12-04T00:50:22.294Z,33.80
2022-12-04T00:52:49.095Z,33.10
2022-12-04T00:55:15.911Z,31.50
2022-12-04T00:57:42.670Z,33.30
2022-12-04T01:00:09.728Z,33.57
2022-12-04T01:02:36.603Z,31.43
2022-12-04T01:05:03.548Z,32.20
2022-12-04T01:07:30.390Z,33.57
2022-12-04T01:09:57.543Z,32.30
2022-12-04T01:12:24.640Z,34.27
2022-12-04T01:14:51.401Z,33.27
2022-12-04T01:17:18.703Z,30.50
2022-12-04T01:19:45.583Z,32.13
2022-12-04T01:22:12.370Z,32.37
2022-12-04T01:24:39.180Z,32.67
2022-12-04T01:27:05.957Z,28.67
2022-12-04T01:29:32.786Z,30.93
2022-12-04T01:31:59.614Z,32.53
2022-12-04T01:34:26.523Z,30.80
2022-12-04T01:36:53.314Z,32.70
2022-12-04T01:39:20.148Z,33.70
2022-12-04T01:41:47.003Z,33.27
2022-12-04T01:44:18.841Z,30.10
2022-12-04T01:46:56.435Z,32.03
2022-12-04T01:49:46.500Z,31.53
2022-12-04T01:52:23.763Z,31.90
2022-12-04T01:54:54.110Z,34.00
2022-12-04T01:57:22.303Z,31.57
2022-12-04T01:59:50.494Z,32.95
2022-12-04T02:02:19.481Z,31.37
2022-12-04T02:04:46.385Z,33.30
2022-12-04T02:07:13.282Z,30.67
2022-12-04T02:09:40.312Z,30.17
2022-12-04T02:12:21.290Z,30.00
2022-12-04T02:15:27.898Z,29.30
2022-12-04T02:18:12.745Z,29.70
2022-12-04T02:20:59.170Z,30.70
2022-12-04T02:23:42.625Z,28.90
2022-12-04T02:26:36.654Z,29.87
2022-12-04T02:29:17.031Z,30.10
2022-12-04T02:31:52.652Z,30.53
2022-12-04T02:34:47.915Z,30.20
2022-12-04T02:37:20.041Z,29.53
2022-12-04T02:39:59.780Z,31.97
2022-12-04T02:42:41.850Z,29.90
2022-12-04T02:45:13.792Z,34.33
2022-12-04T02:47:41.849Z,31.53
2022-12-04T02:50:16.794Z,31.87
2022-12-04T02:52:53.236Z,32.53
2022-12-04T02:55:23.400Z,31.20
2022-12-04T02:57:51.286Z,31.37
2022-12-04T03:00:18.599Z,31.80
2022-12-04T03:02:59.569Z,33.20
2022-12-04T03:05:34.778Z,31.17
2022-12-04T03:08:04.860Z,32.40
2022-12-04T03:10:36.744Z,31.10
2022-12-04T03:13:09.501Z,31.60
2022-12-04T03:15:44.926Z,32.30
2022-12-04T03:18:29.264Z,31.33
2022-12-04T03:21:04.293Z,32.37
2022-12-04T03:23:34.691Z,30.13
2022-12-04T03:26:15.157Z,33.80
2022-12-04T03:29:05.173Z,33.53
2022-12-04T03:31:43.121Z,34.30
2022-12-04T03:34:09.898Z,32.57
2022-12-04T03:36:37.983Z,32.93
2022-12-04T03:39:36.639Z,32.47
2022-12-04T03:42:16.971Z,35.00
2022-12-04T03:44:49.469Z,33.70
2022-12-04T03:47:21.187Z,36.10
2022-12-04T03:50:00.252Z,33.63
2022-12-04T03:52:53.362Z,35.17
2022-12-04T03:55:29.388Z,35.67
2022-12-04T03:58:00.117Z,33.87
2022-12-04T04:00:26.902Z,36.20
2022-12-04T04:03:00.332Z,36.67
2022-12-04T04:05:27.661Z,35.10
2022-12-04T04:08:21.445Z,35.50
2022-12-04T04:10:49.170Z,35.43
2022-12-04T04:13:37.740Z,35.90
2022-12-04T04:16:23.840Z,34.93
2022-12-04T04:19:10.204Z,36.77
2022-12-04T04:21:56.009Z,36.77
2022-12-04T04:24:31.209Z,35.43
2022-12-04T04:26:58.481Z,36.13
2022-12-04T04:29:25.261Z,36.73
2022-12-04T04:31:57.844Z,36.13
2022-12-04T04:34:33.593Z,32.57
2022-12-04T04:37:09.277Z,34.77
2022-12-04T04:40:06.701Z,36.07
2022-12-04T04:42:41.826Z,35.23
2022-12-04T04:45:21.649Z,34.57
2022-12-04T04:47:54.777Z,34.53
2022-12-04T04:50:21.654Z,33.43
2022-12-04T04:52:51.072Z,36.93
2022-12-04T04:55:18.076Z,34.77
2022-12-04T04:57:44.911Z,36.58
2022-12-04T05:01:12.173Z,32.05
2022-12-04T05:04:21.031Z,35.88
2022-12-04T05:06:53.880Z,31.92
2022-12-04T05:09:23.325Z,34.98
2022-12-04T05:11:53.734Z,34.10
2022-12-04T05:14:22.656Z,35.40
2022-12-04T05:16:49.447Z,35.67
2022-12-04T05:19:34.759Z,35.35
2022-12-04T05:22:14.543Z,34.71
2022-12-04T05:24:41.344Z,35.40
2022-12-04T05:27:08.160Z,34.77
2022-12-04T05:29:36.108Z,32.50
2022-12-04T05:35:12.287Z,28.10
2022-12-04T05:41:30.746Z,28.30
2022-12-04T05:57:01.710Z,28.38
2022-12-04T06:06:22.558Z,32.32
2022-12-04T06:08:50.673Z,40.07
2022-12-04T06:14:04.540Z,28.17
2022-12-04T06:16:43.246Z,33.22
2022-12-04T06:19:17.501Z,27.55
2022-12-04T06:29:42.769Z,36.11
2022-12-04T06:32:09.651Z,38.77
2022-12-04T06:34:44.485Z,38.22
2022-12-04T06:37:11.304Z,36.53
2022-12-04T06:39:38.070Z,36.43
2022-12-04T06:42:04.946Z,39.83
2022-12-04T06:44:31.777Z,38.93
2022-12-04T06:47:00.987Z,38.23
2022-12-04T06:49:28.125Z,37.43
2022-12-04T06:51:54.916Z,36.90
2022-12-04T06:54:21.681Z,39.10
2022-12-04T07:14:44.393Z,28.83
2022-12-04T07:17:27.562Z,33.78
2022-12-04T07:27:31.101Z,29.23
2022-12-04T07:30:30.814Z,37.45
2022-12-04T07:58:59.439Z,29.70
2022-12-04T08:13:58.930Z,28.60
2022-12-04T08:17:02.906Z,38.53
2022-12-04T08:26:51.877Z,33.22
2022-12-04T08:47:17.945Z,32.30
2022-12-04T08:49:44.709Z,25.75
2022-12-04T09:01:13.893Z,31.80
2022-12-04T09:05:02.729Z,34.80
2022-12-04T09:30:13.592Z,30.70
2022-12-04T09:36:32.114Z,31.50
2022-12-04T09:39:22.401Z,33.58
2022-12-04T09:42:39.366Z,33.46
2022-12-04T09:45:16.437Z,37.78
2022-12-04T09:48:50.274Z,37.51
2022-12-04T10:00:21.410Z,27.48
2022-12-04T10:03:24.954Z,33.05
2022-12-04T10:16:10.207Z,36.85
2022-12-04T10:18:57.572Z,34.93
2022-12-04T10:21:48.386Z,34.91
2022-12-04T10:30:40.081Z,39.97
2022-12-04T10:38:54.072Z,30.50
2022-12-04T10:41:54.738Z,38.85
2022-12-04T10:50:12.802Z,36.65
2022-12-04T11:01:16.353Z,36.71
2022-12-04T11:04:07.761Z,28.03
2022-12-04T11:06:40.653Z,28.77
2022-12-04T11:09:22.825Z,37.62
2022-12-04T11:13:30.858Z,31.50
2022-12-04T11:16:01.128Z,37.05
2022-12-04T11:44:57.072Z,33.75
2022-12-04T11:51:06.798Z,31.35
2022-12-04T11:57:27.014Z,30.98
2022-12-04T12:02:32.462Z,33.47
2022-12-04T12:05:08.105Z,33.11
2022-12-04T12:12:53.893Z,28.27
2022-12-04T12:17:37.811Z,32.92
2022-12-04T12:20:37.493Z,30.55
2022-12-04T12:36:08.490Z,24.70
2022-12-04T12:40:38.115Z,24.38
2022-12-04T12:44:27.173Z,24.30
2022-12-04T12:47:01.514Z,23.50
2022-12-04T12:50:14.351Z,25.42
2022-12-04T12:52:54.746Z,23.17
2022-12-04T12:56:01.250Z,17.98
2022-12-04T13:09:17.384Z,19.60
2022-12-04T13:11:44.839Z,20.75
2022-12-04T13:14:16.457Z,18.91
2022-12-04T13:17:04.483Z,18.77
2022-12-04T13:19:34.391Z,22.03
2022-12-04T13:23:58.242Z,22.36
2022-12-04T13:27:25.623Z,20.52
2022-12-04T13:33:01.990Z,22.33
2022-12-04T13:35:28.738Z,25.37
2022-12-04T13:43:36.297Z,19.00
2022-12-04T13:48:32.374Z,23.00
2022-12-04T13:55:36.640Z,20.63
2022-12-04T13:58:11.053Z,16.87
2022-12-04T14:00:45.761Z,20.23
2022-12-04T14:08:29.690Z,20.26
2022-12-04T14:15:20.118Z,20.35
2022-12-04T14:22:51.696Z,16.48
2022-12-04T14:29:21.247Z,23.14
2022-12-04T14:35:22.475Z,18.45
2022-12-04T14:46:22.420Z,18.45
2022-12-04T14:54:09.519Z,23.60
2022-12-04T14:57:05.957Z,20.33
2022-12-04T15:10:01.552Z,25.44
2022-12-04T15:23:02.283Z,22.63
2022-12-04T15:26:21.513Z,19.55
2022-12-04T15:29:17.892Z,23.90
2022-12-04T15:32:00.861Z,22.99
2022-12-04T15:37:32.627Z,24.82
2022-12-04T15:40:08.365Z,23.58
2022-12-04T15:42:37.354Z,24.30
2022-12-04T15:45:26.998Z,24.60
2022-12-04T15:48:01.500Z,24.40
2022-12-04T15:50:40.450Z,29.20
2022-12-04T15:53:18.020Z,27.28
2022-12-04T15:55:59.310Z,28.55
2022-12-04T16:27:15.089Z,24.00
2022-12-04T16:29:45.522Z,27.16
2022-12-04T16:32:39.596Z,25.95
2022-12-04T16:35:20.643Z,27.02
2022-12-04T16:37:52.770Z,30.95
2022-12-04T16:40:22.235Z,29.61
2022-12-04T16:42:55.160Z,29.78
2022-12-04T16:48:53.535Z,27.33
2022-12-04T16:51:25.796Z,28.50
2022-12-04T16:56:36.475Z,28.65
2022-12-04T16:59:11.741Z,27.64
2022-12-04T17:01:45.141Z,28.44
2022-12-04T17:04:12.989Z,26.60
2022-12-04T17:06:49.026Z,25.43
2022-12-04T17:09:23.341Z,27.17
2022-12-04T17:14:40.950Z,27.15
2022-12-04T17:17:07.760Z,21.92
2022-12-04T17:20:17.717Z,26.40
2022-12-04T17:25:50.473Z,31.55
2022-12-04T17:28:34.286Z,22.56
2022-12-04T17:43:43.045Z,23.98
2022-12-04T17:46:21.796Z,26.02
2022-12-04T17:48:55.222Z,24.45
2022-12-04T17:54:53.310Z,22.88
2022-12-04T18:03:01.216Z,22.40
2022-12-04T18:20:10.583Z,21.85
2022-12-04T18:25:07.431Z,20.40
2022-12-04T18:43:10.533Z,24.73
2022-12-04T18:46:13.568Z,25.77
2022-12-04T18:55:14.577Z,24.77
2022-12-04T19:01:13.946Z,21.30
2022-12-04T19:07:32.520Z,23.27
2022-12-04T19:25:40.142Z,18.63
2022-12-04T19:32:10.859Z,19.05
2022-12-04T19:50:38.199Z,19.45
2022-12-04T19:56:56.702Z,20.63
2022-12-04T20:27:03.283Z,20.84
2022-12-04T20:33:23.077Z,18.30
2022-12-04T20:49:26.111Z,19.48
2022-12-04T20:53:24.668Z,19.38
2022-12-04T21:10:36.838Z,22.92
2022-12-04T21:16:55.318Z,20.13
2022-12-04T21:35:14.543Z,22.40
2022-12-04T21:41:51.781Z,23.38
2022-12-04T21:59:59.304Z,22.77
2022-12-04T22:06:19.167Z,24.50
2022-12-04T22:24:53.849Z,23.48
2022-12-04T22:31:16.849Z,25.50
2022-12-04T22:49:35.273Z,23.52
2022-12-04T22:55:53.833Z,24.83
2022-12-04T23:14:02.506Z,24.13
2022-12-04T23:20:20.956Z,25.88
2022-12-04T23:38:42.020Z,20.48
2022-12-04T23:43:59.634Z,23.48
2022-12-04T23:50:23.069Z,24.67
